Time;durP1;ratioP1;P1;durP2;ratioP2;P2;SDS_P1;SDS_P2;PMS_P1;PMS_P2;Temp;Humidity;BMP_temperature;BMP_pressure;BME280_temperature;BME280_humidity;BME280_pressure;Samples;Min_cycle;Max_cycle;Signal;HPM_P1;HPM_P2
2022/10/04 00:01:52;;;;;;;5.43;2.30;;;11.80;99.90;;;;;;5054315;28;20029;-74
2022/10/04 00:04:24;;;;;;;4.97;2.15;;;11.80;99.90;;;;;;5054268;28;20017;-74
2022/10/04 00:06:57;;;;;;;10.63;2.05;;;11.70;99.90;;;;;;5054265;28;20048;-74
2022/10/04 00:09:29;;;;;;;9.52;2.40;;;11.70;99.90;;;;;;5054624;28;20025;-74
2022/10/04 00:11:56;;;;;;;8.55;2.33;;;11.70;99.90;;;;;;5036331;28;20017;-74
2022/10/04 00:14:30;;;;;;;9.13;2.83;;;11.70;99.90;;;;;;5054221;28;20028;-73
2022/10/04 00:16:58;;;;;;;7.10;2.17;;;11.70;99.90;;;;;;5054062;28;20021;-74
2022/10/04 00:19:38;;;;;;;7.07;2.03;;;11.70;99.90;;;;;;5053905;28;20048;-74
2022/10/04 00:22:06;;;;;;;3.25;2.00;;;11.70;99.90;;;;;;5053715;28;20033;-74
2022/10/04 00:24:35;;;;;;;5.72;2.15;;;11.70;99.90;;;;;;5054429;28;20025;-74
2022/10/04 00:27:20;;;;;;;8.20;2.28;;;11.70;99.90;;;;;;5053288;28;20067;-74
2022/10/04 00:30:20;;;;;;;3.60;2.25;;;11.80;99.90;;;;;;5053799;28;20052;-74
2022/10/04 00:33:00;;;;;;;6.72;1.98;;;11.80;99.90;;;;;;5049755;28;20033;-74
2022/10/04 00:35:28;;;;;;;3.83;1.95;;;11.80;99.90;;;;;;5035872;28;20491;-74
2022/10/04 00:37:58;;;;;;;7.70;3.35;;;11.80;99.90;;;;;;5054294;28;20024;-74
2022/10/04 00:40:28;;;;;;;9.77;3.15;;;11.70;99.90;;;;;;5053446;28;20048;-74
2022/10/04 00:43:18;;;;;;;7.75;2.42;;;11.80;99.90;;;;;;5035843;28;20032;-74
2022/10/04 00:45:51;;;;;;;10.48;4.03;;;11.80;99.90;;;;;;5053447;28;20071;-74
2022/10/04 00:48:39;;;;;;;6.75;2.90;;;11.80;99.90;;;;;;5035719;28;20032;-74
2022/10/04 00:51:26;;;;;;;10.07;3.73;;;11.80;99.90;;;;;;5053386;28;20063;-74
2022/10/04 00:54:00;;;;;;;8.20;3.85;;;11.80;99.90;;;;;;5054061;28;20290;-74
2022/10/04 00:56:38;;;;;;;9.52;3.17;;;11.80;99.90;;;;;;5053453;28;20490;-74
2022/10/04 00:59:22;;;;;;;13.93;3.83;;;11.90;99.90;;;;;;5053829;28;20468;-74
2022/10/04 01:01:53;;;;;;;9.20;2.90;;;11.80;99.90;;;;;;5053315;28;20025;-74
2022/10/04 01:04:44;;;;;;;8.02;3.47;;;11.80;99.90;;;;;;5035378;28;20392;-74
2022/10/04 01:07:13;;;;;;;12.80;3.92;;;11.80;99.90;;;;;;5043922;28;20037;-74
2022/10/04 01:09:50;;;;;;;10.98;3.75;;;11.80;99.90;;;;;;5053491;28;20024;-74
2022/10/04 01:12:34;;;;;;;7.55;3.67;;;11.80;99.90;;;;;;5035971;28;20074;-74
2022/10/04 01:15:23;;;;;;;12.13;4.18;;;11.80;99.90;;;;;;5053583;28;20063;-74
2022/10/04 01:18:19;;;;;;;8.50;4.22;;;11.80;99.90;;;;;;5053144;28;20396;-74
2022/10/04 01:20:47;;;;;;;9.93;3.92;;;11.70;99.90;;;;;;5052818;28;20037;-74
2022/10/04 01:23:40;;;;;;;14.57;4.22;;;11.70;99.90;;;;;;5053491;28;20036;-74
2022/10/04 01:26:29;;;;;;;8.80;4.75;;;13.20;99.90;;;;;;5035186;28;20112;-74
2022/10/04 01:29:14;;;;;;;9.88;3.70;;;11.60;99.90;;;;;;5053031;28;20064;-74
2022/10/04 01:31:43;;;;;;;9.48;4.90;;;11.60;99.90;;;;;;5053098;28;20109;-74
2022/10/04 01:34:12;;;;;;;9.25;4.40;;;11.60;99.90;;;;;;5052889;28;20032;-74
2022/10/04 01:36:38;;;;;;;7.75;3.67;;;11.50;99.90;;;;;;5053469;28;20173;-74
2022/10/04 01:39:05;;;;;;;10.27;4.60;;;11.50;99.90;;;;;;5056986;28;20365;-74
2022/10/04 01:41:43;;;;;;;9.85;4.15;;;11.50;99.90;;;;;;5056909;28;20025;-74
2022/10/04 01:44:13;;;;;;;17.00;4.75;;;11.40;99.90;;;;;;5057378;28;20029;-73
2022/10/04 01:46:40;;;;;;;7.28;3.72;;;11.30;99.90;;;;;;5039079;28;20025;-73
2022/10/04 01:49:17;;;;;;;11.35;4.57;;;11.30;99.90;;;;;;5057327;28;20082;-74
2022/10/04 01:51:56;;;;;;;10.75;4.32;;;11.30;99.90;;;;;;5056829;28;20579;-74
2022/10/04 01:54:30;;;;;;;12.20;4.38;;;11.20;99.90;;;;;;5056819;28;20070;-73
2022/10/04 01:57:04;;;;;;;15.98;4.38;;;11.20;99.90;;;;;;5056700;28;20032;-74
2022/10/04 01:59:39;;;;;;;17.52;4.88;;;11.20;99.90;;;;;;5057134;28;20029;-74
2022/10/04 02:02:16;;;;;;;8.18;4.28;;;11.10;99.90;;;;;;5056920;28;20519;-74
2022/10/04 02:04:47;;;;;;;10.35;4.88;;;11.00;99.90;;;;;;5038741;28;20021;-74
2022/10/04 02:07:14;;;;;;;10.18;3.85;;;10.90;99.90;;;;;;5057182;28;20048;-74
2022/10/04 02:09:43;;;;;;;12.00;4.55;;;10.90;99.90;;;;;;5056393;28;20025;-74
2022/10/04 02:12:15;;;;;;;10.02;4.22;;;10.90;99.90;;;;;;5056463;28;20021;-74
2022/10/04 02:14:51;;;;;;;11.35;3.65;;;10.80;99.90;;;;;;5056538;28;20407;-74
2022/10/04 02:17:24;;;;;;;10.65;3.88;;;10.70;99.90;;;;;;5038542;28;20021;-74
2022/10/04 02:19:51;;;;;;;9.50;3.65;;;10.70;99.90;;;;;;5038328;28;20032;-74
2022/10/04 02:22:17;;;;;;;15.48;4.47;;;10.60;99.90;;;;;;5038137;28;20043;-74
2022/10/04 02:24:46;;;;;;;7.63;4.40;;;10.60;99.90;;;;;;5056306;28;20041;-74
2022/10/04 02:27:12;;;;;;;14.20;4.15;;;10.50;99.90;;;;;;5056166;28;20021;-73
2022/10/04 02:29:38;;;;;;;12.00;4.60;;;10.50;99.90;;;;;;5056137;28;20029;-74
2022/10/04 02:34:53;;;;;;;;;;;10.40;99.90;;;;;;5056758;28;20036;-74
2022/10/04 02:37:22;;;;;;;11.73;4.97;;;10.30;99.90;;;;;;5055996;28;19911;-74
2022/10/04 02:40:04;;;;;;;18.38;5.32;;;10.30;99.90;;;;;;5055871;28;20104;-74
2022/10/04 02:42:39;;;;;;;19.55;5.07;;;10.30;99.90;;;;;;5038044;28;20052;-74
2022/10/04 02:45:37;;;;;;;8.55;4.72;;;10.30;99.90;;;;;;5055934;28;20025;-73
2022/10/04 02:48:30;;;;;;;8.60;3.90;;;10.20;99.90;;;;;;5044844;28;20033;-74
2022/10/04 02:51:05;;;;;;;14.73;5.40;;;10.20;99.90;;;;;;5054861;28;20037;-74
2022/10/04 02:53:48;;;;;;;10.98;5.10;;;10.10;99.90;;;;;;5055645;28;20028;-74
2022/10/04 02:56:15;;;;;;;13.75;5.20;;;10.10;99.90;;;;;;5055903;28;20031;-74
2022/10/04 02:58:41;;;;;;;14.10;5.57;;;10.10;99.90;;;;;;5056030;28;20373;-74
2022/10/04 03:01:16;;;;;;;10.85;4.28;;;10.00;99.90;;;;;;5055585;28;20115;-74
2022/10/04 03:03:46;;;;;;;12.60;4.97;;;10.00;99.90;;;;;;5055513;28;20021;-74
2022/10/04 03:06:15;;;;;;;13.00;5.70;;;9.90;99.90;;;;;;5055433;28;20033;-74
2022/10/04 03:08:57;;;;;;;11.68;5.57;;;9.90;99.90;;;;;;5037516;28;20014;-74
2022/10/04 03:11:28;;;;;;;24.00;6.07;;;9.80;99.90;;;;;;5055286;28;20033;-73
2022/10/04 03:13:57;;;;;;;14.75;5.03;;;9.80;99.90;;;;;;5055221;28;20021;-74
2022/10/04 03:16:24;;;;;;;13.57;5.97;;;9.80;99.90;;;;;;5055299;28;20106;-74
2022/10/04 03:18:52;;;;;;;11.75;5.72;;;9.80;99.90;;;;;;5055416;28;20021;-74
2022/10/04 03:21:20;;;;;;;18.35;5.38;;;9.80;99.90;;;;;;5055148;28;20037;-73
2022/10/04 03:23:49;;;;;;;13.13;6.18;;;9.80;99.90;;;;;;5054966;28;20017;-74
2022/10/04 03:26:36;;;;;;;10.55;5.85;;;9.80;99.90;;;;;;5055049;28;20079;-73
2022/10/04 03:29:09;;;;;;;15.57;6.00;;;9.80;99.90;;;;;;5037002;28;20466;-73
2022/10/04 03:31:41;;;;;;;19.25;6.30;;;9.80;99.90;;;;;;5055245;28;20236;-73
2022/10/04 03:34:14;;;;;;;15.30;6.40;;;9.80;99.90;;;;;;5054929;28;20056;-73
2022/10/04 03:36:40;;;;;;;13.32;5.70;;;9.80;99.90;;;;;;5054870;28;20039;-73
2022/10/04 03:39:10;;;;;;;12.70;6.00;;;9.80;99.90;;;;;;5054835;28;20082;-74
2022/10/04 03:41:40;;;;;;;13.57;5.60;;;9.80;99.90;;;;;;5054690;28;20043;-74
2022/10/04 03:44:13;;;;;;;14.13;6.32;;;9.80;99.90;;;;;;5054550;28;20061;-74
2022/10/04 03:46:39;;;;;;;14.00;7.25;;;9.80;99.90;;;;;;5036783;28;20075;-74
2022/10/04 03:49:06;;;;;;;12.35;5.75;;;9.80;99.90;;;;;;5036581;28;20441;-74
2022/10/04 03:51:34;;;;;;;16.48;6.40;;;9.80;99.90;;;;;;5054809;28;20544;-73
2022/10/04 03:54:02;;;;;;;15.50;6.28;;;9.70;99.90;;;;;;5036597;28;20020;-74
2022/10/04 03:56:32;;;;;;;14.48;6.15;;;9.70;99.90;;;;;;5054400;28;20056;-74
2022/10/04 03:59:00;;;;;;;12.82;6.30;;;9.70;99.90;;;;;;5036633;28;20017;-74
2022/10/04 04:01:40;;;;;;;13.68;6.28;;;9.70;99.90;;;;;;5053346;28;20017;-73
2022/10/04 04:04:33;;;;;;;13.75;5.85;;;9.70;99.90;;;;;;5054763;28;20135;-74
2022/10/04 04:07:06;;;;;;;14.98;7.18;;;9.70;99.90;;;;;;5054321;28;20032;-74
2022/10/04 04:09:38;;;;;;;12.07;6.25;;;9.60;99.90;;;;;;5054304;28;20087;-74
2022/10/04 04:12:10;;;;;;;14.50;6.70;;;9.60;99.90;;;;;;5036194;28;20365;-74
2022/10/04 04:14:38;;;;;;;18.20;7.13;;;9.60;99.90;;;;;;5054106;28;20021;-73
2022/10/04 04:17:26;;;;;;;18.55;7.63;;;9.50;99.90;;;;;;5054463;28;20036;-74
2022/10/04 04:19:58;;;;;;;9.52;5.90;;;9.50;99.90;;;;;;5054076;28;20116;-74
2022/10/04 04:22:26;;;;;;;15.98;7.07;;;9.40;99.90;;;;;;5053923;28;20047;-74
2022/10/04 04:24:51;;;;;;;12.13;6.40;;;9.40;99.90;;;;;;5036041;28;20032;-74
2022/10/04 04:27:18;;;;;;;11.30;6.63;;;9.50;99.90;;;;;;5036060;28;20013;-74
2022/10/04 04:29:53;;;;;;;18.85;6.20;;;9.40;99.90;;;;;;5054100;28;20021;-74
2022/10/04 04:32:35;;;;;;;13.65;6.55;;;9.40;99.90;;;;;;5053841;28;20025;-74
2022/10/04 04:35:07;;;;;;;15.27;7.50;;;9.40;99.90;;;;;;5053970;28;20029;-73
2022/10/04 04:37:38;;;;;;;12.07;6.15;;;9.30;99.90;;;;;;5053767;28;20025;-74
2022/10/04 04:40:23;;;;;;;12.45;6.15;;;9.30;99.90;;;;;;5053588;28;20387;-74
2022/10/04 04:42:49;;;;;;;16.40;6.53;;;9.30;99.90;;;;;;5053852;28;20025;-73
2022/10/04 04:45:24;;;;;;;13.25;6.53;;;9.30;99.90;;;;;;5053510;28;20033;-74
2022/10/04 04:47:57;;;;;;;15.88;6.53;;;9.30;99.90;;;;;;5053568;28;20028;-74
2022/10/04 04:50:35;;;;;;;14.13;7.15;;;9.30;99.90;;;;;;5053523;28;20139;-74
2022/10/04 04:53:18;;;;;;;12.02;6.60;;;9.20;99.90;;;;;;5035769;28;20033;-74
2022/10/04 04:55:51;;;;;;;15.57;6.53;;;9.20;99.90;;;;;;5035673;28;20028;-74
2022/10/04 04:58:20;;;;;;;9.77;5.70;;;9.20;99.90;;;;;;5053967;28;20064;-74
2022/10/04 05:00:55;;;;;;;12.40;6.28;;;9.10;99.90;;;;;;5053298;28;20017;-74
2022/10/04 05:03:21;;;;;;;14.60;6.57;;;9.10;99.90;;;;;;5053569;28;20021;-73
2022/10/04 05:05:46;;;;;;;13.50;6.88;;;9.10;99.90;;;;;;5053171;28;20037;-74
2022/10/04 05:08:22;;;;;;;12.18;6.63;;;9.10;99.90;;;;;;5035585;28;20075;-75
2022/10/04 05:10:56;;;;;;;12.32;6.75;;;9.10;99.90;;;;;;5035321;28;20029;-74
2022/10/04 05:13:30;;;;;;;12.45;7.13;;;9.10;99.90;;;;;;5052932;28;20096;-75
2022/10/04 05:15:58;;;;;;;14.70;6.50;;;9.10;99.90;;;;;;5053616;28;20468;-74
2022/10/04 05:18:33;;;;;;;11.63;6.47;;;9.10;99.90;;;;;;5053107;28;20090;-74
2022/10/04 05:21:28;;;;;;;14.13;6.88;;;9.20;99.90;;;;;;5052859;28;20399;-74
2022/10/04 05:24:08;;;;;;;15.05;7.38;;;9.20;99.90;;;;;;5053063;28;20029;-74
2022/10/04 05:26:34;;;;;;;18.15;7.80;;;9.20;99.90;;;;;;5053199;28;20107;-74
2022/10/04 05:29:08;;;;;;;18.75;6.97;;;9.20;99.90;;;;;;5053625;28;20053;-74
2022/10/04 05:32:02;;;;;;;14.95;7.45;;;9.20;99.90;;;;;;5053372;28;20496;-74
2022/10/04 05:34:38;;;;;;;15.75;7.20;;;9.20;99.90;;;;;;5035131;28;20031;-74
2022/10/04 05:37:23;;;;;;;16.67;6.97;;;9.20;99.90;;;;;;5035457;28;20021;-74
2022/10/04 05:40:13;;;;;;;14.38;6.35;;;9.20;99.90;;;;;;5053210;28;20025;-75
2022/10/04 05:42:44;;;;;;;19.27;7.50;;;9.30;99.90;;;;;;5053066;28;20021;-74
2022/10/04 05:45:28;;;;;;;19.83;7.93;;;9.30;99.90;;;;;;5053051;28;20021;-74
2022/10/04 05:48:00;;;;;;;16.77;7.53;;;9.30;99.90;;;;;;5053209;28;20483;-74
2022/10/04 05:50:41;;;;;;;16.50;6.85;;;9.30;99.90;;;;;;5034841;28;20017;-74
2022/10/04 05:53:27;;;;;;;12.20;7.00;;;9.30;99.90;;;;;;5053291;28;20421;-74
2022/10/04 05:56:27;;;;;;;22.25;7.97;;;9.30;99.90;;;;;;5052745;28;20036;-74
2022/10/04 05:59:23;;;;;;;15.02;7.63;;;9.30;99.90;;;;;;5052875;28;20025;-74
2022/10/04 06:02:14;;;;;;;12.15;6.95;;;9.30;99.90;;;;;;5052718;28;20464;-74
2022/10/04 06:05:04;;;;;;;16.65;7.40;;;9.30;99.90;;;;;;5052842;28;20426;-74
2022/10/04 06:07:36;;;;;;;12.75;6.75;;;9.30;99.90;;;;;;5052735;28;20044;-74
2022/10/04 06:10:26;;;;;;;13.05;6.88;;;9.30;99.90;;;;;;5053004;28;20053;-74
2022/10/04 06:13:07;;;;;;;14.25;6.72;;;9.30;99.90;;;;;;5052623;28;20032;-74
2022/10/04 06:15:38;;;;;;;15.43;6.90;;;9.40;99.90;;;;;;5052649;28;20021;-76
2022/10/04 06:18:23;;;;;;;17.85;6.70;;;9.40;99.90;;;;;;5053322;28;20021;-76
2022/10/04 06:20:56;;;;;;;14.32;6.75;;;9.40;99.90;;;;;;5052445;28;20028;-74
2022/10/04 06:23:24;;;;;;;16.85;7.50;;;9.40;99.90;;;;;;5052619;28;20032;-73
2022/10/04 06:26:12;;;;;;;13.95;6.60;;;9.50;99.90;;;;;;5055810;28;20042;-74
2022/10/04 06:28:46;;;;;;;20.92;7.10;;;9.40;99.90;;;;;;5056709;28;20451;-74
2022/10/04 06:31:21;;;;;;;14.95;6.93;;;9.40;99.90;;;;;;5055995;28;20029;-74
2022/10/04 06:34:26;;;;;;;17.48;6.45;;;9.40;99.90;;;;;;5038218;28;20558;-74
2022/10/04 06:37:17;;;;;;;18.95;7.00;;;9.40;99.90;;;;;;5038644;28;20044;-74
2022/10/04 06:40:04;;;;;;;13.73;6.80;;;9.50;99.90;;;;;;5055894;28;20391;-74
2022/10/04 06:42:39;;;;;;;16.35;6.82;;;9.50;99.90;;;;;;5056330;28;20393;-74
2022/10/04 06:45:20;;;;;;;14.77;6.60;;;9.50;99.90;;;;;;5037851;28;20551;-74
2022/10/04 06:47:54;;;;;;;17.92;8.13;;;9.60;99.90;;;;;;5055753;28;20479;-74
2022/10/04 06:50:41;;;;;;;13.85;7.57;;;9.70;99.90;;;;;;5056258;28;20032;-74
2022/10/04 06:53:30;;;;;;;16.73;6.40;;;9.80;99.90;;;;;;5056255;28;20029;-74
2022/10/04 06:56:06;;;;;;;14.27;7.10;;;10.00;99.90;;;;;;5037701;28;20492;-74
2022/10/04 06:58:47;;;;;;;16.67;7.22;;;10.10;99.90;;;;;;5056155;28;20024;-74
2022/10/04 07:01:28;;;;;;;16.20;7.35;;;10.20;99.90;;;;;;5055452;28;20116;-74
2022/10/04 07:03:53;;;;;;;26.92;9.02;;;10.40;99.90;;;;;;5055479;28;20100;-74
2022/10/04 07:06:32;;;;;;;12.27;6.35;;;10.50;99.90;;;;;;5037536;28;20055;-73
2022/10/04 07:09:01;;;;;;;19.42;8.00;;;10.60;99.90;;;;;;5037506;28;20032;-74
2022/10/04 07:11:57;;;;;;;16.73;6.47;;;10.70;99.90;;;;;;5037386;28;20067;-73
2022/10/04 07:14:37;;;;;;;16.90;7.18;;;10.70;99.90;;;;;;5055595;28;20082;-74
2022/10/04 07:17:18;;;;;;;16.88;6.25;;;10.70;99.90;;;;;;5055256;28;20083;-74
2022/10/04 07:19:45;;;;;;;12.48;5.75;;;10.80;99.90;;;;;;5055093;28;20029;-73
2022/10/04 07:22:30;;;;;;;12.48;6.13;;;10.80;99.90;;;;;;5037081;28;20074;-74
2022/10/04 07:25:14;;;;;;;14.65;5.65;;;10.90;99.90;;;;;;5037137;28;20494;-74
2022/10/04 07:31:02;;;;;;;12.50;6.13;;;11.20;99.90;;;;;;5055274;28;20059;-74
2022/10/04 07:33:32;;;;;;;14.85;5.40;;;11.40;99.90;;;;;;5055119;28;20032;-73
2022/10/04 07:36:10;;;;;;;14.00;5.15;;;11.60;99.90;;;;;;5054635;28;20027;-74
2022/10/04 07:38:49;;;;;;;12.60;6.10;;;11.80;99.90;;;;;;5055119;28;20482;-74
2022/10/04 07:41:24;;;;;;;12.52;4.75;;;12.10;99.90;;;;;;5054766;28;20052;-73
2022/10/04 07:43:56;;;;;;;14.93;5.97;;;12.30;99.90;;;;;;5054673;28;20021;-73
2022/10/04 07:46:49;;;;;;;17.23;5.32;;;12.50;99.90;;;;;;5036646;28;20025;-74
2022/10/04 07:49:21;;;;;;;14.10;5.22;;;12.70;99.90;;;;;;5054526;28;20486;-74
2022/10/04 07:51:58;;;;;;;13.93;4.63;;;12.80;99.90;;;;;;5037033;28;20491;-74
2022/10/04 07:54:53;;;;;;;13.05;4.93;;;12.80;99.90;;;;;;5054493;28;20029;-74
2022/10/04 07:57:25;;;;;;;9.48;5.82;;;12.90;99.90;;;;;;5036577;28;20036;-74
2022/10/04 07:59:59;;;;;;;11.57;4.57;;;12.90;99.90;;;;;;5054577;28;20036;-74
2022/10/04 08:02:36;;;;;;;10.63;4.75;;;12.80;99.90;;;;;;5054683;28;20539;-74
2022/10/04 08:05:28;;;;;;;13.65;4.32;;;12.90;99.90;;;;;;5054419;28;20025;-74
2022/10/04 08:08:21;;;;;;;8.95;3.92;;;12.90;99.90;;;;;;5054330;28;20025;-74
2022/10/04 08:11:22;;;;;;;9.40;4.15;;;13.00;99.90;;;;;;5054459;28;20041;-73
2022/10/04 08:13:53;;;;;;;12.75;4.85;;;13.10;99.90;;;;;;5054751;28;20025;-74
2022/10/04 08:16:51;;;;;;;12.18;4.53;;;13.20;99.90;;;;;;5054494;28;20048;-74
2022/10/04 08:19:44;;;;;;;8.60;3.72;;;13.30;99.90;;;;;;5036153;28;20404;-73
2022/10/04 08:22:28;;;;;;;7.13;3.55;;;13.60;99.90;;;;;;5073725;22;20052;-75
2022/10/04 08:25:16;;;;;;;8.35;4.35;;;13.70;99.90;;;;;;5074079;28;20466;-75
2022/10/04 08:31:05;;;;;;;9.25;3.45;;;14.00;99.90;;;;;;5074270;28;20043;-75
2022/10/04 08:33:58;;;;;;;9.43;3.50;;;14.00;99.90;;;;;;5074188;28;20025;-75
2022/10/04 08:36:52;;;;;;;7.85;3.10;;;14.00;99.90;;;;;;5073836;28;20138;-73
2022/10/04 08:39:45;;;;;;;7.97;3.47;;;13.90;99.90;;;;;;5031048;28;20036;-73
2022/10/04 08:42:11;;;;;;;7.28;2.75;;;14.00;99.90;;;;;;5112418;22;20075;-73
2022/10/04 08:45:22;;;;;;;10.48;2.78;;;14.10;99.90;;;;;;5055636;28;20060;-73
2022/10/04 08:48:15;;;;;;;14.75;4.45;;;14.20;99.90;;;;;;5073209;28;20032;-73
2022/10/04 08:51:12;;;;;;;5.85;2.42;;;14.30;99.90;;;;;;5073820;28;20099;-75
2022/10/04 08:53:41;;;;;;;8.38;2.92;;;14.30;99.90;;;;;;5073744;28;20029;-74
2022/10/04 08:56:44;;;;;;;8.32;3.25;;;14.30;99.90;;;;;;5055555;28;20021;-73
2022/10/04 08:59:35;;;;;;;5.97;2.97;;;14.30;99.90;;;;;;5072940;28;20032;-73
2022/10/04 09:02:24;;;;;;;6.65;2.60;;;14.40;99.90;;;;;;5055527;28;20038;-73
2022/10/04 09:05:05;;;;;;;5.10;2.80;;;14.50;99.90;;;;;;5056179;28;20362;-73
2022/10/04 09:07:52;;;;;;;8.75;2.72;;;14.50;99.90;;;;;;5073562;28;20391;-73
2022/10/04 09:10:30;;;;;;;9.13;3.78;;;14.60;99.90;;;;;;5073335;28;20094;-73
2022/10/04 09:13:04;;;;;;;6.43;2.80;;;14.70;99.90;;;;;;5073311;28;20025;-73
2022/10/04 09:15:50;;;;;;;5.28;2.78;;;14.80;99.90;;;;;;5073180;28;20119;-73
2022/10/04 09:18:47;;;;;;;11.35;3.20;;;14.90;99.90;;;;;;5055270;28;20140;-73
2022/10/04 09:21:36;;;;;;;11.88;3.22;;;15.00;99.90;;;;;;5073549;28;20391;-73
2022/10/04 09:24:38;;;;;;;7.22;3.50;;;15.10;99.90;;;;;;5073100;28;20455;-73
2022/10/04 09:27:38;;;;;;;12.27;3.35;;;15.20;99.90;;;;;;5073322;28;20044;-73
2022/10/04 09:30:19;;;;;;;8.68;3.17;;;15.30;99.90;;;;;;5072948;28;20135;-73
2022/10/04 09:32:59;;;;;;;7.38;2.97;;;15.40;99.90;;;;;;5073563;28;20473;-73
2022/10/04 09:35:34;;;;;;;11.80;4.10;;;15.40;99.90;;;;;;5073234;28;20498;-73
2022/10/04 09:38:18;;;;;;;10.98;3.33;;;15.40;99.90;;;;;;5072995;28;20020;-73
2022/10/04 09:41:10;;;;;;;9.55;2.88;;;15.40;99.90;;;;;;5073166;28;20024;-73
2022/10/04 09:44:01;;;;;;;12.15;4.00;;;15.40;99.90;;;;;;5055377;28;20094;-73
2022/10/04 09:46:43;;;;;;;7.35;3.22;;;15.40;99.90;;;;;;5073298;28;20401;-73
2022/10/04 09:49:53;;;;;;;4.80;2.05;;;15.50;99.90;;;;;;5072982;28;20436;-73
2022/10/04 09:52:27;;;;;;;7.38;2.67;;;15.70;99.90;;;;;;5072986;28;20025;-73
2022/10/04 09:55:03;;;;;;;6.60;2.30;;;15.70;99.90;;;;;;5054776;28;20035;-73
2022/10/04 09:57:56;;;;;;;9.63;2.42;;;15.80;99.90;;;;;;5072742;28;20493;-73
2022/10/04 10:00:27;;;;;;;8.18;2.67;;;15.70;99.90;;;;;;5075293;28;20420;-73
2022/10/04 10:03:25;;;;;;;5.75;2.85;;;15.70;99.90;;;;;;5077008;28;20032;-73
2022/10/04 10:06:07;;;;;;;8.80;2.17;;;15.60;99.90;;;;;;5076369;28;20098;-73
2022/10/04 10:09:04;;;;;;;7.45;2.00;;;15.60;99.90;;;;;;5076656;28;20023;-74
2022/10/04 10:14:38;;;;;;;9.68;2.70;;;15.90;99.90;;;;;;5077203;28;20039;-73
2022/10/04 10:17:19;;;;;;;7.57;1.70;;;16.00;99.90;;;;;;5058290;28;20143;-73
2022/10/04 10:19:56;;;;;;;9.32;1.98;;;16.30;99.90;;;;;;5076085;28;20020;-73
2022/10/04 10:22:30;;;;;;;9.35;2.65;;;16.40;99.90;;;;;;5076667;28;20059;-73
2022/10/04 10:25:43;;;;;;;4.13;2.08;;;16.40;99.90;;;;;;5076710;28;20028;-73
2022/10/04 10:28:39;;;;;;;7.07;2.03;;;16.50;99.90;;;;;;4975259;28;20121;-73
2022/10/04 10:31:22;;;;;;;8.77;1.92;;;16.30;99.90;;;;;;4959012;28;20090;-76
2022/10/04 10:34:03;;;;;;;6.30;2.05;;;16.30;99.90;;;;;;5043497;28;20065;-73
2022/10/04 10:36:47;;;;;;;8.20;2.90;;;16.50;99.90;;;;;;5076416;28;20025;-73
2022/10/04 10:39:37;;;;;;;8.15;2.28;;;16.50;99.90;;;;;;5058031;28;20048;-73
2022/10/04 10:42:32;;;;;;;8.70;2.25;;;16.70;99.90;;;;;;5057783;28;20025;-74
2022/10/04 10:45:55;;;;;;;8.60;2.00;;;17.00;99.90;;;;;;5053955;28;20040;-73
2022/10/04 10:48:53;;;;;;;8.13;1.85;;;17.20;99.90;;;;;;4975046;28;20034;-73
2022/10/04 10:51:39;;;;;;;2.95;1.48;;;17.30;99.90;;;;;;4967281;28;20091;-73
2022/10/04 10:54:38;;;;;;;4.88;2.05;;;17.20;99.90;;;;;;5071163;28;20090;-73
2022/10/04 10:57:24;;;;;;;5.20;1.50;;;17.20;99.90;;;;;;5075610;28;20383;-73
2022/10/04 11:00:11;;;;;;;8.40;2.80;;;17.20;99.90;;;;;;5075858;28;20483;-73
2022/10/04 11:03:10;;;;;;;7.70;1.92;;;17.50;99.90;;;;;;5076003;28;20123;-74
2022/10/04 11:05:57;;;;;;;;;;;17.60;99.90;;;;;;5075778;28;20028;-73
2022/10/04 11:08:47;;;;;;;9.07;2.03;;;17.70;99.90;;;;;;5076050;28;19904;-73
2022/10/04 11:11:50;;;;;;;5.13;1.77;;;17.80;99.90;;;;;;5074794;28;20025;-73
2022/10/04 11:14:47;;;;;;;2.78;1.08;;;17.90;99.90;;;;;;5057290;28;20498;-73
2022/10/04 11:17:55;;;;;;;7.43;1.77;;;17.90;99.90;;;;;;5075195;28;20100;-73
2022/10/04 11:20:59;;;;;;;9.00;2.05;;;18.00;99.90;;;;;;5075366;28;20020;-73
2022/10/04 11:23:55;;;;;;;2.92;1.90;;;18.20;99.90;;;;;;5036620;28;20032;-73
2022/10/04 11:26:59;;;;;;;6.47;1.40;;;18.30;99.90;;;;;;5075539;28;20078;-73
2022/10/04 11:29:30;;;;;;;10.27;2.60;;;18.40;99.90;;;;;;5075421;28;20103;-73
2022/10/04 11:31:59;;;;;;;8.68;1.90;;;18.50;99.90;;;;;;5074867;28;20131;-74
2022/10/04 11:34:39;;;;;;;4.85;1.50;;;18.50;99.90;;;;;;5075259;28;20028;-73
2022/10/04 11:37:42;;;;;;;5.20;1.42;;;18.40;99.90;;;;;;5075031;28;20499;-74
2022/10/04 11:40:10;;;;;;;4.53;1.73;;;18.30;99.90;;;;;;5074890;28;20463;-73
2022/10/04 11:42:47;;;;;;;6.45;1.70;;;18.20;99.90;;;;;;5074799;28;20120;-73
2022/10/04 11:45:19;;;;;;;2.75;1.35;;;18.20;99.90;;;;;;5074908;28;20178;-74
2022/10/04 11:47:58;;;;;;;8.43;1.63;;;18.30;99.90;;;;;;5074636;28;20025;-73
2022/10/04 11:50:26;;;;;;;;;;;18.40;99.90;;;;;;5074868;28;20021;-73
2022/10/04 11:53:07;;;;;;;;;;;18.50;99.90;;;;;;5057131;28;19910;-73
2022/10/04 11:55:56;;;;;;;4.97;0.65;;;18.70;99.90;;;;;;5074914;28;20007;-74
2022/10/04 11:59:00;;;;;;;5.20;1.65;;;19.00;99.90;;;;;;5074381;28;20819;-73
2022/10/04 12:01:58;;;;;;;5.10;1.73;;;19.20;99.90;;;;;;4973541;28;20041;-73
2022/10/04 12:04:46;;;;;;;4.88;1.65;;;19.30;99.90;;;;;;4973649;28;20498;-73
2022/10/04 12:07:43;;;;;;;5.07;1.27;;;19.20;99.90;;;;;;5057909;28;20082;-73
2022/10/04 12:10:39;;;;;;;2.45;1.05;;;19.00;99.90;;;;;;5074066;28;20064;-73
2022/10/04 12:13:26;;;;;;;5.38;1.55;;;18.80;99.90;;;;;;5074407;28;20502;-73
2022/10/04 12:16:00;;;;;;;3.40;0.93;;;18.60;99.90;;;;;;5074173;28;20025;-73
2022/10/04 12:18:38;;;;;;;5.20;1.15;;;18.50;99.90;;;;;;5074438;28;20073;-73
2022/10/04 12:21:42;;;;;;;3.75;1.77;;;18.60;99.90;;;;;;5073505;28;20099;-73
2022/10/04 12:24:08;;;;;;;3.92;0.98;;;19.00;99.90;;;;;;5074153;28;20032;-73
2022/10/04 12:27:02;;;;;;;2.75;1.00;;;19.30;99.90;;;;;;5074248;28;20013;-73
2022/10/04 12:29:39;;;;;;;3.78;0.82;;;19.70;99.90;;;;;;5073756;28;20039;-74
2022/10/04 12:32:17;;;;;;;4.82;0.77;;;19.90;99.90;;;;;;5056502;28;20048;-73
2022/10/04 12:34:57;;;;;;;5.93;1.23;;;19.90;99.90;;;;;;5056108;28;20032;-74
2022/10/04 12:37:37;;;;;;;6.78;1.08;;;20.00;99.90;;;;;;5074387;28;20104;-73
2022/10/04 12:40:16;;;;;;;4.15;1.35;;;20.00;99.90;;;;;;5073836;28;20429;-73
2022/10/04 12:43:03;;;;;;;1.88;0.75;;;19.80;99.90;;;;;;5073758;28;20108;-73
2022/10/04 12:45:32;;;;;;;2.75;1.23;;;19.50;99.90;;;;;;5074276;28;20028;-73
2022/10/04 12:48:31;;;;;;;6.47;1.45;;;19.40;99.90;;;;;;5073634;28;20430;-73
2022/10/04 12:51:31;;;;;;;7.28;1.55;;;19.60;99.90;;;;;;5073697;28;20016;-74
2022/10/04 12:54:34;;;;;;;16.23;1.30;;;20.00;99.90;;;;;;5074001;28;20089;-73
2022/10/04 12:57:24;;;;;;;5.57;1.23;;;20.30;99.90;;;;;;5055626;28;20028;-74
2022/10/04 13:00:18;;;;;;;2.83;1.17;;;20.60;99.90;;;;;;5055617;28;20051;-74
2022/10/04 13:03:39;;;;;;;5.38;1.48;;;20.80;99.90;;;;;;5074479;28;20025;-75
2022/10/04 13:06:25;;;;;;;5.47;1.30;;;21.20;99.90;;;;;;5061415;28;20043;-76
2022/10/04 13:09:19;;;;;;;5.35;1.60;;;21.30;99.90;;;;;;5073771;28;20430;-75
2022/10/04 13:12:13;;;;;;;5.30;1.10;;;21.30;99.90;;;;;;5042705;28;20036;-75
2022/10/04 13:15:07;;;;;;;5.50;1.00;;;21.40;99.90;;;;;;5073517;28;20025;-73
2022/10/04 13:18:02;;;;;;;12.82;1.02;;;21.50;99.90;;;;;;5073539;28;20013;-75
2022/10/04 13:20:44;;;;;;;2.20;0.70;;;21.70;99.90;;;;;;5073699;28;20099;-76
2022/10/04 13:23:23;;;;;;;5.70;1.15;;;21.90;99.90;;;;;;5073615;28;20471;-76
2022/10/04 13:26:14;;;;;;;5.70;1.63;;;21.90;99.90;;;;;;5073195;28;20036;-74
2022/10/04 13:29:15;;;;;;;5.85;1.52;;;21.90;98.70;;;;;;5073284;28;20035;-76
2022/10/04 13:32:02;;;;;;;4.20;1.27;;;21.80;99.40;;;;;;5073648;28;20069;-74
2022/10/04 13:34:54;;;;;;;2.97;1.00;;;21.70;98.00;;;;;;5077130;28;20417;-73
2022/10/04 13:38:27;;;;;;;5.18;1.20;;;21.50;99.70;;;;;;5077716;28;20063;-73
2022/10/04 13:41:10;;;;;;;5.90;2.00;;;21.60;99.70;;;;;;5015349;28;20506;-75
2022/10/04 13:43:54;;;;;;;4.55;1.48;;;21.50;99.20;;;;;;5015447;28;20038;-73
2022/10/04 13:46:39;;;;;;;7.00;1.70;;;21.40;99.80;;;;;;5059670;28;20414;-75
2022/10/04 13:49:48;;;;;;;3.53;1.20;;;21.50;99.80;;;;;;5077456;28;20028;-75
2022/10/04 13:58:46;;;;;;;3.55;1.40;;;21.20;99.90;;;;;;5077034;28;20533;-75
2022/10/04 14:01:49;;;;;;;1.30;0.57;;;21.50;99.90;;;;;;5077269;28;20441;-75
2022/10/04 14:04:33;;;;;;;6.20;1.52;;;21.80;99.90;;;;;;5076835;28;20093;-73
2022/10/04 14:07:12;;;;;;;6.57;0.98;;;22.00;99.10;;;;;;5076847;28;20036;-73
2022/10/04 14:09:54;;;;;;;2.45;0.60;;;22.00;98.10;;;;;;5077135;28;20028;-73
2022/10/04 14:12:41;;;;;;;3.60;1.35;;;22.20;99.40;;;;;;5058946;28;20017;-74
2022/10/04 14:15:37;;;;;;;3.78;1.20;;;22.40;98.90;;;;;;5076838;28;20423;-73
2022/10/04 14:18:59;;;;;;;3.95;1.35;;;22.70;98.30;;;;;;5077044;28;20082;-74